Delta Virtual Airport Information Service

Urumqi Diwopu International Airport

ICAO: ZWWW Country: China
Latitude: 43.9071 Longitude: 87.4742
Latest Arrival : DAL751862 (UNOO-ZWWW) Latest Departure : DAL751861 (ZWWW-OPIS)


WX CaptureLIVE
Data provided by noaa.gov | Fetched at 00:21:31

METAR : ZWWW 080600Z 35002MPS 2500 BR SCT014 M01/M03 Q1020 NOSIG

TAF : ZWWW 080302Z 0806/0906 36002MPS 3500 BR BKN020 TX03/0808Z TNM03/0823Z BECMG 0813/0814 18002MPS 2000 BECMG 0901/0902 36002MPS


Runway Data for ZWWW
Data provided by openaviationdata.com

Runway ID Mag Var Hdg Length Elevation Surface ILS Freq ILS Id ILS Slope
7 3 69° 11793 ft 2125 ft Concrete 109.7 IOY 3
25 3 249° 11793 ft 2125 ft Concrete 110.3 IRM 3

Urumqi Diwopu International Airport, China
Use only for reference purposes



Not for navigational purposes.